This is the latest recevied weather packets stored in our database for station/object KC5TIL-3. If no packets are shown the sender has not sent any weather packets the latest 10 day(s).
| Time | Temp. | Humidity | Pressure | Rain* | Wind** | Luminosity | Snow |
|---|---|---|---|---|---|---|---|
| 1787946523 | 37.78° C | 10% | 1013.8 hPa | 0 mm | 1.79 m/s, 114° | - | - |
| 1787946225 | 37.78° C | 10% | 1013.8 hPa | 0 mm | 1.79 m/s, 271° | - | - |
| 1787945924 | 37.22° C | 10% | 1013.8 hPa | 0 mm | 3.13 m/s, 104° | - | - |
| 1787945626 | 37.22° C | 10% | 1013.8 hPa | 0 mm | 1.79 m/s, 84° | - | - |
| 1787945327 | 37.78° C | 10% | 1013.8 hPa | 0 mm | 2.68 m/s, 82° | - | - |
| 1787945026 | 37.78° C | 10% | 1013.8 hPa | 0 mm | 1.79 m/s, 15° | - | - |
| 1787944728 | 36.67° C | 10% | 1014.8 hPa | 0 mm | 0 m/s | - | - |
| 1787944430 | 36.11° C | 10% | 1014.8 hPa | 0 mm | 3.13 m/s, 160° | - | - |
| 1787944129 | 37.22° C | 10% | 1014.8 hPa | 0 mm | 2.24 m/s, 309° | - | - |
| 1787943830 | 36.67° C | 10% | 1014.8 hPa | 0 mm | 3.13 m/s, 98° | - | - |
| 1787943532 | 37.22° C | 10% | 1014.8 hPa | 0 mm | 2.24 m/s, 309° | - | - |
| 1787943231 | 36.67° C | 13% | 1014.8 hPa | 0 mm | 1.79 m/s, 105° | - | - |
| 1787942933 | 36.67° C | 13% | 1014.8 hPa | 0 mm | 2.24 m/s, 351° | - | - |
| 1787942635 | 36.67° C | 13% | 1014.8 hPa | 0 mm | 2.68 m/s, 284° | - | - |
| 1787942333 | 36.67° C | 13% | 1014.8 hPa | 0 mm | 2.24 m/s, 124° | - | - |
| 1787942035 | 36.11° C | 16% | 1014.8 hPa | 0 mm | 2.68 m/s, 89° | - | - |
| 1787941737 | 36.11° C | 16% | 1014.8 hPa | 0 mm | 3.58 m/s, 92° | - | - |
| 1787941436 | 35.56° C | 16% | 1014.8 hPa | 0 mm | 2.24 m/s, 114° | - | - |
| 1787941137 | 35.56° C | 16% | 1014.8 hPa | 0 mm | 3.13 m/s, 68° | - | - |
| 1787940839 | 36.11° C | 16% | 1014.8 hPa | 0 mm | 1.79 m/s, 136° | - | - |
| 1787940537 | 35° C | 16% | 1014.8 hPa | 0 mm | 4.92 m/s, 110° | - | - |
| 1787940239 | 35.56° C | 16% | 1015.8 hPa | 0 mm | 1.34 m/s, 119° | - | - |
| 1787939941 | 35.56° C | 16% | 1015.8 hPa | 0 mm | 2.24 m/s, 176° | - | - |
| 1787939639 | 35° C | 16% | 1015.8 hPa | 0 mm | 4.02 m/s, 124° | - | - |
| 1787939336 | 35.56° C | 16% | 1015.8 hPa | 0 mm | 3.13 m/s, 132° | - | - |
* Rain latest hour (hover to see other rain measurements)
** Current wind speed in m/s (hover to see current wind gust speed)